Terminal Aerodrome Forecast
Issued by NWS Wichita, KS

Home | Current Version | Previous Version | Text Only | Print | Product List | Glossary On
Versions: 1 2 3 4 5 6 7 8 9 10 11 12 13 14 15 16 17 18 19 20 21
813
FTUS43 KICT 240520
TAFICT
TAF
KICT 240520Z 2406/2506 30010KT P6SM SKC WS020/33045KT
     FM241330 32028G39KT P6SM SKC
     FM242200 32015KT P6SM SKC
     FM250100 32008KT P6SM SKC=

USA.gov is the U.S. government's official web portal to all federal, state and local government web resources and services.